Latest Weather Observations for Gannett Cay

IDQ60801

Issued at 3:02 pm EST Sunday 30 April 2017 (issued every 30 minutes, with the page automatically refreshed every 10 minutes)

About weather observations | Map of weather stations | Latest weather observations for QLD | Other Formats
Station Details ID: 200831 Name: GANNET CAY Lat: -21.98 Lon: 152.47 Height: 2.3 m
Data from the previous 72 hours. | See also: Recent months for locations in Queensland
Date/Time
EST
Temp
°C
App
Temp
°C
Dew
Point
°C
Rel
Hum
%
Delta-T
°C
Wind Press
QNH
hPa
Press
MSL
hPa
Rain since
9am
mm
Dir  Spd
km/h
Gust
km/h
Spd
kts
Gust
kts
30/03:00pm 23.9 - - - - ESE 26 35 14 19 1014.6 - -
30/02:30pm 22.8 - - - - ESE 39 48 21 26 1014.7 - -
30/02:29pm 22.7 - - - - ESE 39 33 21 18 1014.8 1014.9 -
30/02:00pm 24.7 - - - - SE 33 39 18 21 1014.8 - -
30/01:30pm 24.8 - - - - SE 33 39 18 21 1014.9 - -
30/01:29pm 24.9 - - - - SE 33 - 18 - - 1015.0 -
30/01:00pm 24.8 - - - - SSE 37 43 20 23 1015.1 - -
30/12:30pm 24.9 - - - - SSE 37 43 20 23 1015.3 - -
30/12:29pm 24.7 - - - - SSE 37 - 20 - - 1015.4 -
30/12:00pm 24.6 - - - - SE 33 41 18 22 1015.5 - -
30/11:30am 24.5 - - - - SE 32 39 17 21 1015.9 - -
30/11:29am 24.4 - - - - SE 32 - 17 - - 1016.1 -
30/11:00am 24.2 - - - - SE 32 37 17 20 1016.3 - -
30/10:30am 24.7 - - - - SSE 30 35 16 19 1016.5 - -
30/10:29am 24.6 - - - - SE 30 - 16 - - 1016.6 -
30/10:17am 24.8 - - - - SE 33 39 18 21 1016.6 - -
30/10:00am 24.4 - - - - SSE 13 17 7 9 1016.8 - -
30/09:30am 23.7 - - - - SE 17 20 9 11 1016.9 - -
30/09:29am 23.8 - - - - SE 17 - 9 - - 1017.0 -
30/09:00am 23.3 - - - - E 17 20 9 11 1017.1 - -
30/08:46am 21.7 - - - - E 19 44 10 24 1017.3 - -
30/08:30am 22.5 - - - - SE 43 48 23 26 1017.4 - -
30/08:29am 22.3 - - - - SE 43 - 23 - - 1017.4 -
30/08:08am 23.7 - - - - SSE 28 50 15 27 1017.0 - -
30/08:00am 24.4 - - - - SE 20 24 11 13 1017.0 - -
30/07:30am 24.0 - - - - SE 26 30 14 16 1016.8 - -
30/07:29am 24.1 - - - - SE 26 - 14 - - 1016.9 -
30/07:00am 23.4 - - - - SE 32 37 17 20 1016.3 - -
30/06:30am 24.2 - - - - SE 30 33 16 18 1016.1 - -
30/06:29am 24.2 - - - - SE 30 - 16 - - 1016.1 -
30/06:00am 24.1 - - - - SE 30 35 16 19 1015.7 - -
30/05:30am 24.3 - - - - SE 28 35 15 19 1015.6 - -
30/05:29am 24.2 - - - - SE 28 - 15 - - 1015.7 -
30/05:00am 24.0 - - - - SE 28 33 15 18 1015.3 - -
30/04:30am 23.9 - - - - SE 32 35 17 19 1015.2 - -
30/04:29am 24.0 - - - - SE 32 - 17 - - 1015.3 -
30/04:00am 23.9 - - - - SSE 33 39 18 21 1015.0 - -
30/03:30am 23.9 - - - - SSE 35 41 19 22 1014.9 - -
30/03:29am 24.0 - - - - SSE 35 - 19 - - 1015.0 -
30/03:00am 24.1 - - - - SSE 35 41 19 22 1014.9 - -
30/02:30am 23.9 - - - - SSE 41 48 22 26 1014.9 - -
30/02:29am 24.1 - - - - SSE 39 - 21 - - 1015.0 -
30/02:00am 24.0 - - - - SE 41 48 22 26 1015.2 - -
30/01:30am 24.2 - - - - SSE 37 50 20 27 1015.3 - -
30/01:29am 24.4 - - - - SSE 37 - 20 - - 1015.4 -
30/01:10am 24.1 - - - - SSE 41 46 22 25 1015.4 - -
30/01:00am 24.7 - - - - SE 39 46 21 25 1015.5 - -
30/12:30am 24.4 - - - - SE 39 46 21 25 1015.4 - -
30/12:29am 24.6 - - - - SE 39 - 21 - - 1015.5 -
30/12:00am 24.2 - - - - ESE 35 43 19 23 1015.7 - -
 
Date/Time
EST
Temp
°C
App
Temp
°C
Dew
Point
°C
Rel
Hum
%
Delta-T
°C
Wind Press
QNH
hPa
Press
MSL
hPa
Rain since
9am
mm
Dir  Spd
km/h
Gust
km/h
Spd
kts
Gust
kts
29/11:53pm 23.6 - - - - SE 37 54 20 29 1015.7 - -
29/11:49pm 22.7 - - - - E 30 54 16 29 1015.6 - -
29/11:30pm 24.7 - - - - SE 39 44 21 24 1015.7 - -
29/11:29pm 24.8 - - - - SE 39 - 21 - - 1015.8 -
29/11:00pm 24.9 - - - - SE 35 43 19 23 1015.7 - -
29/10:30pm 24.8 - - - - SE 39 46 21 25 1015.8 - -
29/10:29pm 24.8 - - - - SE 39 - 21 - - 1015.9 -
29/10:00pm 24.8 - - - - SE 43 48 23 26 1015.7 - -
29/09:30pm 24.9 - - - - SE 43 50 23 27 1015.8 - -
29/09:29pm 24.7 - - - - SE 41 - 22 - - 1015.9 -
29/09:00pm 24.8 - - - - SE 41 46 22 25 1015.9 - -
29/08:30pm 24.7 - - - - SE 41 50 22 27 1015.8 - -
29/08:29pm 24.7 - - - - SE 41 - 22 - - 1015.9 -
29/08:00pm 25.1 - - - - SE 43 48 23 26 1015.7 - -
29/07:30pm 24.7 - - - - SE 41 48 22 26 1015.3 - -
29/07:29pm 24.9 - - - - SE 43 - 23 - - 1015.4 -
29/07:00pm 24.8 - - - - SE 41 48 22 26 1015.0 - -
29/06:30pm 24.8 - - - - SE 41 46 22 25 1014.7 - -
29/06:29pm 24.9 - - - - SE 41 - 22 - - 1014.8 -
29/06:00pm 24.8 - - - - SE 37 43 20 23 1014.6 - -
29/05:30pm 24.9 - - - - SE 37 43 20 23 1014.4 - -
29/05:29pm 24.9 - - - - SE 37 - 20 - - 1014.5 -
29/05:00pm 24.2 - - - - SSE 28 32 15 17 1014.3 - -
29/04:40pm 24.6 - - - - SE 30 46 16 25 1014.1 - -
29/04:30pm 25.1 - - - - SSE 24 28 13 15 1014.1 - -
29/04:29pm 24.8 - - - - SSE 24 - 13 - - 1014.2 -
29/04:00pm 24.6 - - - - SSE 30 35 16 19 1014.0 - -
29/03:30pm 24.1 - - - - S 30 35 16 19 1013.8 - -
29/03:29pm 23.8 - - - - S 30 - 16 - - 1013.9 -
29/03:00pm 23.4 - - - - S 28 32 15 17 1013.7 - -
29/02:30pm 23.1 - - - - SSE 22 30 12 16 1014.1 - -
29/02:29pm 23.2 - - - - SSE 22 - 12 - - 1014.2 -
29/02:09pm 23.6 - - - - S 30 48 16 26 1014.3 - -
29/02:00pm 23.9 - - - - S 28 33 15 18 1014.3 - -
29/01:30pm 24.0 - - - - SSE 32 37 17 20 1014.4 - -
29/01:29pm 23.9 - - - - SSE 32 - 17 - - 1014.5 -
29/01:00pm 23.5 - - - - S 39 44 21 24 1014.4 - -
29/12:30pm 24.1 - - - - S 35 41 19 22 1014.8 - -
29/12:29pm 24.0 - - - - S 37 - 20 - - 1014.9 -
29/12:00pm 24.4 - - - - S 35 39 19 21 1015.0 - -
29/11:30am 24.1 - - - - S 35 41 19 22 1015.3 - -
29/11:29am 24.1 - - - - S 35 - 19 - - 1015.4 -
29/11:00am 24.0 - - - - S 37 43 20 23 1015.6 - -
29/10:30am 24.2 - - - - S 33 41 18 22 1015.8 - -
29/10:29am 23.9 - - - - S 33 - 18 - - 1015.9 -
29/10:00am 24.0 - - - - S 33 41 18 22 1015.9 - -
29/09:30am 24.0 - - - - S 35 41 19 22 1015.9 - -
29/09:29am 24.1 - - - - S 35 - 19 - - 1015.9 -
29/09:00am 23.7 - - - - S 33 43 18 23 1015.6 - -
29/08:30am 23.8 - - - - S 35 41 19 22 1015.6 - -
29/08:29am 23.7 - - - - S 37 - 20 - - 1015.6 -
29/08:00am 23.7 - - - - S 35 41 19 22 1015.3 - -
29/07:30am 23.9 - - - - S 32 43 17 23 1015.1 - -
29/07:29am 24.0 - - - - S 32 - 17 - - 1015.2 -
29/07:00am 23.6 - - - - S 33 39 18 21 1014.8 - -
29/06:30am 23.6 - - - - S 33 39 18 21 1014.4 - -
29/06:29am 23.6 - - - - S 33 - 18 - - 1014.6 -
29/06:00am 23.7 - - - - S 35 46 19 25 1014.1 - -
29/05:30am 23.7 - - - - S 35 44 19 24 1013.7 - -
29/05:29am 23.6 - - - - S 35 - 19 - - 1013.8 -
29/05:00am 23.5 - - - - S 35 43 19 23 1013.5 - -
29/04:30am 23.6 - - - - S 37 44 20 24 1013.4 - -
29/04:29am 23.6 - - - - S 37 - 20 - - 1013.5 -
29/04:00am 23.5 - - - - S 37 44 20 24 1013.4 - -
29/03:30am 23.5 - - - - SSE 39 46 21 25 1013.5 - -
29/03:29am 23.5 - - - - SSE 39 - 21 - - 1013.6 -
29/03:00am 23.7 - - - - S 39 44 21 24 1013.3 - -
29/02:30am 23.6 - - - - SSE 43 46 23 25 1013.4 - -
29/02:29am 23.7 - - - - SSE 43 - 23 - - 1013.5 -
29/02:00am 23.4 - - - - S 39 46 21 25 1013.6 - -
29/01:30am 23.6 - - - - SSE 44 50 24 27 1013.8 - -
29/01:29am 23.6 - - - - SSE 44 - 24 - - 1013.9 -
29/01:00am 23.5 - - - - SSE 41 48 22 26 1014.0 - -
29/12:30am 23.7 - - - - SSE 43 50 23 27 1014.0 - -
29/12:29am 23.6 - - - - SSE 43 - 23 - - 1014.1 -
29/12:00am 23.6 - - - - S 41 48 22 26 1014.2 - -
 
Date/Time
EST
Temp
°C
App
Temp
°C
Dew
Point
°C
Rel
Hum
%
Delta-T
°C
Wind Press
QNH
hPa
Press
MSL
hPa
Rain since
9am
mm
Dir  Spd
km/h
Gust
km/h
Spd
kts
Gust
kts
28/11:30pm 23.7 - - - - S 39 46 21 25 1014.4 - -
28/11:29pm 23.7 - - - - SSE 39 - 21 - - 1014.6 -
28/11:00pm 23.8 - - - - S 35 43 19 23 1014.7 - -
28/10:30pm 23.6 - - - - S 37 44 20 24 1014.7 - -
28/10:29pm 23.6 - - - - S 37 - 20 - - 1014.9 -
28/10:16pm 23.5 - - - - SSE 39 43 21 23 1014.8 - -
28/10:00pm 22.9 - - - - S 26 32 14 17 1014.9 - -
28/09:30pm 22.9 - - - - S 28 35 15 19 1015.2 - -
28/09:29pm 22.9 - - - - S 28 - 15 - - 1015.3 -
28/09:00pm 22.3 - - - - SSE 30 37 16 20 1015.2 - -
28/08:30pm 22.2 - - - - SSE 32 39 17 21 1015.1 - -
28/08:29pm 22.2 - - - - SSE 33 - 18 - - 1015.2 -
28/08:00pm 22.2 - - - - SSE 33 39 18 21 1015.0 - -
28/07:30pm 21.9 - - - - SSE 30 35 16 19 1014.9 - -
28/07:29pm 21.7 - - - - SSE 30 - 16 - - 1015.0 -
28/07:00pm 21.7 - - - - SSE 32 41 17 22 1014.6 - -
28/06:30pm 21.3 - - - - SSE 32 39 17 21 1014.4 - -
28/06:29pm 21.4 - - - - SSE 32 - 17 - - 1014.5 -
28/06:00pm 21.2 - - - - S 32 39 17 21 1014.1 - -
28/05:30pm 21.0 - - - - S 32 37 17 20 1013.8 - -
28/05:29pm 21.0 - - - - S 32 - 17 - - 1013.9 -
28/05:00pm 21.1 - - - - S 32 41 17 22 1013.5 - -
28/04:30pm 21.0 - - - - S 37 44 20 24 1013.3 - -
28/04:29pm 21.1 - - - - S 37 - 20 - - 1013.4 -
28/04:00pm 21.3 - - - - S 32 39 17 21 1013.1 - -
28/03:30pm 20.9 - - - - S 33 41 18 22 1012.9 - -
28/03:29pm 20.6 - - - - S 33 - 18 - - 1013.0 -
28/03:00pm 20.6 - - - - S 33 43 18 23 1012.9 - -
28/02:30pm 20.6 - - - - S 33 39 18 21 1012.9 - -
28/02:29pm 20.4 - - - - S 33 - 18 - - 1013.0 -
28/02:00pm 20.6 - - - - SSW 33 41 18 22 1012.9 - -
28/01:30pm 20.2 - - - - SSW 35 41 19 22 1013.0 - -
28/01:29pm 20.1 - - - - SSW 35 - 19 - - 1013.2 -
28/01:00pm 19.9 - - - - SSW 35 44 19 24 1013.4 - -
28/12:30pm 20.0 - - - - SSW 35 44 19 24 1013.7 - -
28/12:29pm 20.2 - - - - SSW 35 - 19 - - 1013.8 -
28/12:00pm 19.8 - - - - S 35 46 19 25 1014.2 - -
28/11:30am 19.8 - - - - SSW 33 44 18 24 1014.7 - -
28/11:29am 20.0 - - - - SSW 33 - 18 - - 1014.8 -
28/11:00am 20.1 - - - - SSW 33 39 18 21 1015.2 - -
28/10:30am 20.5 - - - - SSW 32 43 17 23 1015.4 - -
28/10:29am 20.1 - - - - SSW 32 - 17 - - 1015.5 -
28/10:00am 20.1 - - - - SSW 35 43 19 23 1015.7 - -
28/09:30am 19.8 - - - - SSW 32 43 17 23 1015.7 - -
28/09:29am 20.2 - - - - SSW 32 - 17 - - 1015.9 -
28/09:00am 19.8 - - - - SSW 33 44 18 24 1015.4 - -
28/08:30am 19.9 - - - - SSW 33 41 18 22 1015.4 - -
28/08:29am 19.9 - - - - SSW 35 - 19 - - 1015.5 -
28/08:00am 20.1 - - - - SSW 33 41 18 22 1015.0 - -
28/07:30am 19.9 - - - - SSW 33 41 18 22 1014.6 - -
28/07:29am 20.1 - - - - SSW 33 - 18 - - 1014.7 -
28/07:00am 20.2 - - - - SSW 33 43 18 23 1014.3 - -
28/06:30am 20.6 - - - - S 33 43 18 23 1014.1 - -
28/06:29am 20.2 - - - - S 35 - 19 - - 1014.2 -
28/06:00am 20.5 - - - - SSW 35 46 19 25 1013.9 - -
28/05:30am 20.6 - - - - S 37 46 20 25 1013.7 - -
28/05:29am 20.6 - - - - S 37 - 20 - - 1013.8 -
28/05:00am 21.1 - - - - S 39 46 21 25 1013.7 - -
28/04:30am 21.5 - - - - S 41 48 22 26 1013.6 - -
28/04:29am 21.5 - - - - S 43 - 23 - - 1013.6 -
28/04:00am 21.8 - - - - S 44 54 24 29 1013.3 - -
28/03:30am 22.3 - - - - S 43 52 23 28 1013.0 - -
28/03:29am 22.1 - - - - S 43 - 23 - - 1013.0 -
28/03:00am 22.6 - - - - S 43 52 23 28 1012.7 - -
28/02:30am 22.8 - - - - S 43 50 23 27 1012.5 - -
28/02:29am 22.9 - - - - S 43 - 23 - - 1012.7 -
28/02:00am 23.0 - - - - S 41 50 22 27 1012.6 - -
28/01:30am 23.2 - - - - S 41 50 22 27 1012.6 - -
28/01:29am 23.2 - - - - S 41 - 22 - - 1012.7 -
28/01:00am 23.5 - - - - S 35 43 19 23 1012.9 - -
28/12:30am 23.4 - - - - S 35 43 19 23 1013.3 - -
28/12:29am 23.6 - - - - S 35 - 19 - - 1013.4 -
28/12:00am 23.5 - - - - S 35 43 19 23 1013.3 - -
 
Date/Time
EST
Temp
°C
App
Temp
°C
Dew
Point
°C
Rel
Hum
%
Delta-T
°C
Wind Press
QNH
hPa
Press
MSL
hPa
Rain since
9am
mm
Dir  Spd
km/h
Gust
km/h
Spd
kts
Gust
kts
27/11:30pm 23.7 - - - - S 39 44 21 24 1013.5 - -
27/11:29pm 23.6 - - - - S 37 - 20 - - 1013.6 -
27/11:00pm 23.7 - - - - S 37 43 20 23 1013.7 - -
27/10:30pm 23.5 - - - - S 30 35 16 19 1013.5 - -
27/10:29pm 23.6 - - - - S 30 - 16 - - 1013.6 -
27/10:00pm 23.3 - - - - S 30 35 16 19 1013.5 - -
27/09:30pm 23.2 - - - - S 37 43 20 23 1013.8 - -
27/09:29pm 23.2 - - - - S 37 - 20 - - 1013.9 -
27/09:00pm 23.0 - - - - S 35 43 19 23 1014.0 - -
27/08:30pm 22.8 - - - - S 37 44 20 24 1013.7 - -
27/08:29pm 22.8 - - - - S 37 - 20 - - 1013.8 -
27/08:00pm 22.4 - - - - S 43 48 23 26 1013.5 - -
27/07:30pm 22.5 - - - - S 44 52 24 28 1012.9 - -
27/07:29pm 22.7 - - - - S 43 - 23 - - 1013.0 -
27/07:00pm 22.9 - - - - S 41 48 22 26 1012.4 - -
27/06:30pm 23.3 - - - - S 43 50 23 27 1012.0 - -
27/06:29pm 23.4 - - - - S 43 - 23 - - 1012.1 -
27/06:00pm 23.4 - - - - S 41 50 22 27 1011.6 - -
27/05:30pm 23.8 - - - - S 39 44 21 24 1011.3 - -
27/05:29pm 23.6 - - - - S 39 - 21 - - 1011.4 -
27/05:00pm 23.7 - - - - S 37 41 20 22 1011.0 - -
27/04:30pm 24.2 - - - - S 37 43 20 23 1010.4 - -
27/04:29pm 23.8 - - - - S 37 - 20 - - 1010.5 -
27/04:00pm 24.4 - - - - S 33 39 18 21 1010.2 - -
27/03:30pm 24.5 - - - - S 33 37 18 20 1010.1 - -
27/03:29pm 24.4 - - - - S 33 - 18 - - 1010.2 -

Other Formats:

Comma delimited format used in spreadsheet applications
http://www.bom.gov.au/fwo/IDQ60801/IDQ60801.94379.axf

JavaScript Object Notation format (JSON) in row-major order
http://www.bom.gov.au/fwo/IDQ60801/IDQ60801.94379.json